sensor_id;sensor_type;location;lat;lon;timestamp;pressure;altitude;pressure_sealevel;temperature;humidity
70411;BME280;57832;46.038;11.398;2023-04-01T00:00:55;95830.63;;;5.65;100.00
70411;BME280;57832;46.038;11.398;2023-04-01T00:03:22;95827.66;;;5.56;100.00
70411;BME280;57832;46.038;11.398;2023-04-01T00:05:48;95824.72;;;5.52;100.00
70411;BME280;57832;46.038;11.398;2023-04-01T00:08:15;95817.34;;;5.61;100.00
70411;BME280;57832;46.038;11.398;2023-04-01T00:10:41;95817.41;;;5.49;100.00
70411;BME280;57832;46.038;11.398;2023-04-01T00:13:07;95805.09;;;5.45;100.00
70411;BME280;57832;46.038;11.398;2023-04-01T00:15:33;95805.34;;;5.26;100.00
70411;BME280;57832;46.038;11.398;2023-04-01T00:17:59;95807.56;;;4.89;100.00
70411;BME280;57832;46.038;11.398;2023-04-01T00:20:25;95808.28;;;5.01;100.00
70411;BME280;57832;46.038;11.398;2023-04-01T00:22:51;95818.09;;;5.45;100.00
70411;BME280;57832;46.038;11.398;2023-04-01T00:25:16;95805.50;;;5.53;100.00
70411;BME280;57832;46.038;11.398;2023-04-01T00:27:42;95810.53;;;5.26;100.00
70411;BME280;57832;46.038;11.398;2023-04-01T00:30:08;95811.78;;;5.24;100.00
70411;BME280;57832;46.038;11.398;2023-04-01T00:32:34;95815.09;;;5.19;100.00
70411;BME280;57832;46.038;11.398;2023-04-01T00:35:01;95820.50;;;5.00;100.00
70411;BME280;57832;46.038;11.398;2023-04-01T00:37:28;95818.19;;;5.16;100.00
70411;BME280;57832;46.038;11.398;2023-04-01T00:39:53;95812.00;;;4.88;100.00
70411;BME280;57832;46.038;11.398;2023-04-01T00:42:19;95808.63;;;4.76;100.00
70411;BME280;57832;46.038;11.398;2023-04-01T00:44:47;95810.22;;;4.77;100.00
70411;BME280;57832;46.038;11.398;2023-04-01T00:47:26;95813.38;;;4.79;100.00
70411;BME280;57832;46.038;11.398;2023-04-01T00:49:52;95806.56;;;4.90;100.00
70411;BME280;57832;46.038;11.398;2023-04-01T00:52:28;95813.81;;;4.76;100.00
70411;BME280;57832;46.038;11.398;2023-04-01T00:54:56;95818.16;;;4.70;100.00
70411;BME280;57832;46.038;11.398;2023-04-01T00:57:34;95820.09;;;4.63;100.00
70411;BME280;57832;46.038;11.398;2023-04-01T01:00:05;95819.06;;;4.23;100.00
70411;BME280;57832;46.038;11.398;2023-04-01T01:02:33;95822.13;;;4.20;100.00
70411;BME280;57832;46.038;11.398;2023-04-01T01:04:59;95831.00;;;4.48;100.00
70411;BME280;57832;46.038;11.398;2023-04-01T01:12:50;95823.47;;;4.34;100.00
70411;BME280;57832;46.038;11.398;2023-04-01T01:15:26;95837.09;;;4.42;100.00
70411;BME280;57832;46.038;11.398;2023-04-01T01:18:05;95849.88;;;4.31;100.00
70411;BME280;57832;46.038;11.398;2023-04-01T01:34:40;95844.88;;;4.42;100.00
70411;BME280;57832;46.038;11.398;2023-04-01T01:37:14;95830.16;;;4.07;100.00
70411;BME280;57832;46.038;11.398;2023-04-01T01:39:43;95821.09;;;4.21;100.00
70411;BME280;57832;46.038;11.398;2023-04-01T01:42:13;95822.56;;;4.17;100.00
70411;BME280;57832;46.038;11.398;2023-04-01T01:44:42;95832.78;;;4.47;100.00
70411;BME280;57832;46.038;11.398;2023-04-01T01:47:10;95828.94;;;4.50;100.00
70411;BME280;57832;46.038;11.398;2023-04-01T01:49:36;95817.22;;;4.35;100.00
70411;BME280;57832;46.038;11.398;2023-04-01T01:52:04;95814.34;;;4.32;100.00
70411;BME280;57832;46.038;11.398;2023-04-01T01:54:29;95817.84;;;4.26;100.00
70411;BME280;57832;46.038;11.398;2023-04-01T01:57:07;95812.31;;;4.22;100.00
70411;BME280;57832;46.038;11.398;2023-04-01T01:59:35;95816.84;;;4.03;100.00
70411;BME280;57832;46.038;11.398;2023-04-01T02:02:03;95820.28;;;4.32;100.00
70411;BME280;57832;46.038;11.398;2023-04-01T02:04:35;95810.75;;;4.09;100.00
70411;BME280;57832;46.038;11.398;2023-04-01T02:07:04;95809.66;;;3.93;100.00
70411;BME280;57832;46.038;11.398;2023-04-01T02:09:32;95823.97;;;3.96;100.00
70411;BME280;57832;46.038;11.398;2023-04-01T02:12:02;95823.28;;;4.12;100.00
70411;BME280;57832;46.038;11.398;2023-04-01T02:14:52;95815.38;;;4.07;100.00
70411;BME280;57832;46.038;11.398;2023-04-01T02:17:20;95820.09;;;4.10;100.00
70411;BME280;57832;46.038;11.398;2023-04-01T02:19:53;95823.28;;;4.12;100.00
70411;BME280;57832;46.038;11.398;2023-04-01T02:22:25;95821.69;;;4.11;100.00
70411;BME280;57832;46.038;11.398;2023-04-01T02:24:53;95823.63;;;3.92;100.00
70411;BME280;57832;46.038;11.398;2023-04-01T02:27:20;95816.09;;;3.91;100.00
70411;BME280;57832;46.038;11.398;2023-04-01T02:29:46;95816.41;;;3.59;100.00
70411;BME280;57832;46.038;11.398;2023-04-01T02:32:12;95831.06;;;3.65;100.00
70411;BME280;57832;46.038;11.398;2023-04-01T02:34:39;95823.50;;;3.63;100.00
70411;BME280;57832;46.038;11.398;2023-04-01T02:37:06;95826.09;;;3.63;100.00
70411;BME280;57832;46.038;11.398;2023-04-01T02:39:31;95824.63;;;3.67;100.00
70411;BME280;57832;46.038;11.398;2023-04-01T02:41:57;95825.00;;;3.71;100.00
70411;BME280;57832;46.038;11.398;2023-04-01T02:44:22;95824.63;;;3.79;100.00
70411;BME280;57832;46.038;11.398;2023-04-01T02:46:48;95833.31;;;3.73;100.00
70411;BME280;57832;46.038;11.398;2023-04-01T02:49:13;95830.16;;;3.71;100.00
70411;BME280;57832;46.038;11.398;2023-04-01T02:51:39;95838.94;;;3.58;100.00
70411;BME280;57832;46.038;11.398;2023-04-01T02:54:05;95842.47;;;3.88;100.00
70411;BME280;57832;46.038;11.398;2023-04-01T02:56:30;95840.56;;;3.83;100.00
70411;BME280;57832;46.038;11.398;2023-04-01T02:58:57;95846.88;;;3.87;100.00
70411;BME280;57832;46.038;11.398;2023-04-01T03:01:23;95849.00;;;3.90;100.00
70411;BME280;57832;46.038;11.398;2023-04-01T03:04:05;95852.03;;;3.75;100.00
70411;BME280;57832;46.038;11.398;2023-04-01T03:06:31;95858.81;;;3.88;100.00
70411;BME280;57832;46.038;11.398;2023-04-01T03:08:56;95848.66;;;3.98;100.00
70411;BME280;57832;46.038;11.398;2023-04-01T03:11:22;95849.13;;;4.07;100.00
70411;BME280;57832;46.038;11.398;2023-04-01T03:13:48;95850.25;;;3.99;100.00
70411;BME280;57832;46.038;11.398;2023-04-01T03:16:14;95849.22;;;4.12;100.00
70411;BME280;57832;46.038;11.398;2023-04-01T03:18:40;95841.69;;;3.99;100.00
70411;BME280;57832;46.038;11.398;2023-04-01T03:21:20;95851.81;;;4.00;100.00
70411;BME280;57832;46.038;11.398;2023-04-01T03:23:46;95850.69;;;3.96;100.00
70411;BME280;57832;46.038;11.398;2023-04-01T03:26:12;95854.53;;;3.94;100.00
70411;BME280;57832;46.038;11.398;2023-04-01T03:28:38;95860.72;;;3.93;100.00
70411;BME280;57832;46.038;11.398;2023-04-01T03:31:04;95851.38;;;3.80;100.00
70411;BME280;57832;46.038;11.398;2023-04-01T03:33:31;95855.31;;;3.94;100.00
70411;BME280;57832;46.038;11.398;2023-04-01T03:35:56;95850.00;;;4.13;100.00
70411;BME280;57832;46.038;11.398;2023-04-01T03:38:22;95861.19;;;4.13;100.00
70411;BME280;57832;46.038;11.398;2023-04-01T03:40:47;95865.13;;;4.16;100.00
70411;BME280;57832;46.038;11.398;2023-04-01T03:43:13;95861.19;;;4.01;100.00
70411;BME280;57832;46.038;11.398;2023-04-01T03:45:46;95863.91;;;3.95;100.00
70411;BME280;57832;46.038;11.398;2023-04-01T03:48:13;95867.63;;;3.87;100.00
70411;BME280;57832;46.038;11.398;2023-04-01T03:50:48;95863.09;;;4.06;100.00
70411;BME280;57832;46.038;11.398;2023-04-01T03:53:13;95870.00;;;4.00;100.00
70411;BME280;57832;46.038;11.398;2023-04-01T03:55:40;95875.97;;;4.13;100.00
70411;BME280;57832;46.038;11.398;2023-04-01T03:58:08;95877.53;;;4.14;100.00
70411;BME280;57832;46.038;11.398;2023-04-01T04:00:50;95877.31;;;4.15;100.00
70411;BME280;57832;46.038;11.398;2023-04-01T04:03:16;95883.19;;;3.87;100.00
70411;BME280;57832;46.038;11.398;2023-04-01T04:05:48;95876.97;;;4.24;100.00
70411;BME280;57832;46.038;11.398;2023-04-01T04:08:14;95873.81;;;4.22;100.00
70411;BME280;57832;46.038;11.398;2023-04-01T04:10:39;95871.44;;;4.20;100.00
70411;BME280;57832;46.038;11.398;2023-04-01T04:13:05;95875.72;;;4.14;100.00
70411;BME280;57832;46.038;11.398;2023-04-01T04:15:30;95871.09;;;4.16;100.00
70411;BME280;57832;46.038;11.398;2023-04-01T04:17:56;95870.44;;;3.97;100.00
70411;BME280;57832;46.038;11.398;2023-04-01T04:20:22;95870.53;;;4.14;100.00
70411;BME280;57832;46.038;11.398;2023-04-01T04:22:47;95873.72;;;4.05;100.00
70411;BME280;57832;46.038;11.398;2023-04-01T04:25:13;95876.63;;;3.73;100.00
70411;BME280;57832;46.038;11.398;2023-04-01T04:27:39;95876.38;;;3.62;100.00
70411;BME280;57832;46.038;11.398;2023-04-01T04:30:05;95880.22;;;3.72;100.00
70411;BME280;57832;46.038;11.398;2023-04-01T04:32:31;95882.81;;;3.60;100.00
70411;BME280;57832;46.038;11.398;2023-04-01T04:34:57;95882.50;;;3.68;100.00
70411;BME280;57832;46.038;11.398;2023-04-01T04:37:22;95891.84;;;3.69;100.00
70411;BME280;57832;46.038;11.398;2023-04-01T04:39:48;95894.53;;;3.62;100.00
70411;BME280;57832;46.038;11.398;2023-04-01T04:42:13;95901.75;;;3.60;100.00
70411;BME280;57832;46.038;11.398;2023-04-01T04:44:39;95898.69;;;3.51;100.00
70411;BME280;57832;46.038;11.398;2023-04-01T04:47:05;95903.94;;;3.33;100.00
70411;BME280;57832;46.038;11.398;2023-04-01T04:49:31;95909.28;;;3.50;100.00
70411;BME280;57832;46.038;11.398;2023-04-01T04:51:56;95908.03;;;3.41;100.00
70411;BME280;57832;46.038;11.398;2023-04-01T04:54:22;95909.97;;;3.45;100.00
70411;BME280;57832;46.038;11.398;2023-04-01T04:56:47;95910.63;;;3.41;100.00
70411;BME280;57832;46.038;11.398;2023-04-01T04:59:13;95917.03;;;3.08;100.00
70411;BME280;57832;46.038;11.398;2023-04-01T05:01:38;95916.25;;;3.38;100.00
70411;BME280;57832;46.038;11.398;2023-04-01T05:04:04;95927.03;;;3.34;100.00
70411;BME280;57832;46.038;11.398;2023-04-01T05:06:30;95922.34;;;3.13;100.00
70411;BME280;57832;46.038;11.398;2023-04-01T05:08:56;95920.47;;;3.20;100.00
70411;BME280;57832;46.038;11.398;2023-04-01T05:11:22;95919.06;;;3.36;100.00
70411;BME280;57832;46.038;11.398;2023-04-01T05:13:48;95922.47;;;3.48;100.00
70411;BME280;57832;46.038;11.398;2023-04-01T05:16:16;95922.47;;;3.48;100.00
70411;BME280;57832;46.038;11.398;2023-04-01T05:18:42;95922.47;;;3.48;100.00
70411;BME280;57832;46.038;11.398;2023-04-01T05:21:09;95930.09;;;3.31;100.00
70411;BME280;57832;46.038;11.398;2023-04-01T05:23:36;95925.16;;;3.42;100.00
70411;BME280;57832;46.038;11.398;2023-04-01T05:26:06;95916.31;;;3.19;100.00
70411;BME280;57832;46.038;11.398;2023-04-01T05:28:32;95925.38;;;3.40;100.00
70411;BME280;57832;46.038;11.398;2023-04-01T05:30:59;95923.84;;;3.51;100.00
70411;BME280;57832;46.038;11.398;2023-04-01T05:33:26;95924.53;;;3.58;100.00
70411;BME280;57832;46.038;11.398;2023-04-01T05:35:52;95926.88;;;3.48;100.00
70411;BME280;57832;46.038;11.398;2023-04-01T05:38:18;95926.22;;;3.64;100.00
70411;BME280;57832;46.038;11.398;2023-04-01T05:40:43;95925.78;;;3.67;100.00
70411;BME280;57832;46.038;11.398;2023-04-01T05:43:09;95937.25;;;3.60;100.00
70411;BME280;57832;46.038;11.398;2023-04-01T05:45:34;95942.25;;;3.61;100.00
70411;BME280;57832;46.038;11.398;2023-04-01T05:48:00;95936.88;;;3.75;100.00
70411;BME280;57832;46.038;11.398;2023-04-01T05:50:25;95943.06;;;3.74;100.00
70411;BME280;57832;46.038;11.398;2023-04-01T05:52:51;95935.16;;;3.80;100.00
70411;BME280;57832;46.038;11.398;2023-04-01T05:55:17;95935.06;;;3.87;100.00
70411;BME280;57832;46.038;11.398;2023-04-01T05:57:44;95940.81;;;3.77;100.00
70411;BME280;57832;46.038;11.398;2023-04-01T06:00:10;95930.44;;;3.89;100.00
70411;BME280;57832;46.038;11.398;2023-04-01T06:02:36;95942.19;;;3.80;100.00
70411;BME280;57832;46.038;11.398;2023-04-01T06:07:43;95933.53;;;4.33;100.00
70411;BME280;57832;46.038;11.398;2023-04-01T06:10:17;95929.78;;;4.17;100.00
70411;BME280;57832;46.038;11.398;2023-04-01T06:12:55;95930.91;;;4.57;100.00
70411;BME280;57832;46.038;11.398;2023-04-01T06:15:29;95932.28;;;4.36;100.00
70411;BME280;57832;46.038;11.398;2023-04-01T06:40:26;95927.97;;;6.15;100.00
70411;BME280;57832;46.038;11.398;2023-04-01T06:54:32;95936.88;;;6.58;100.00
70411;BME280;57832;46.038;11.398;2023-04-01T06:57:32;95929.63;;;6.60;100.00
70411;BME280;57832;46.038;11.398;2023-04-01T07:00:27;95929.41;;;7.33;100.00
70411;BME280;57832;46.038;11.398;2023-04-01T07:03:36;95930.81;;;7.74;100.00
70411;BME280;57832;46.038;11.398;2023-04-01T07:06:29;95931.97;;;7.56;100.00
70411;BME280;57832;46.038;11.398;2023-04-01T07:09:12;95928.63;;;7.93;100.00
70411;BME280;57832;46.038;11.398;2023-04-01T07:11:40;95921.38;;;8.00;100.00
70411;BME280;57832;46.038;11.398;2023-04-01T07:16:41;95921.41;;;8.05;100.00
70411;BME280;57832;46.038;11.398;2023-04-01T07:19:15;95912.13;;;8.25;100.00
70411;BME280;57832;46.038;11.398;2023-04-01T07:22:00;95911.91;;;8.31;100.00
70411;BME280;57832;46.038;11.398;2023-04-01T07:24:34;95903.78;;;8.70;100.00
70411;BME280;57832;46.038;11.398;2023-04-01T07:27:00;95904.69;;;9.07;100.00
70411;BME280;57832;46.038;11.398;2023-04-01T07:29:26;95902.59;;;8.99;100.00
70411;BME280;57832;46.038;11.398;2023-04-01T07:35:09;95904.00;;;9.43;100.00
70411;BME280;57832;46.038;11.398;2023-04-01T07:37:55;95893.00;;;9.77;100.00
70411;BME280;57832;46.038;11.398;2023-04-01T07:40:45;95887.78;;;9.92;100.00
70411;BME280;57832;46.038;11.398;2023-04-01T07:49:08;95883.91;;;11.36;100.00
70411;BME280;57832;46.038;11.398;2023-04-01T07:57:38;95885.28;;;11.63;100.00
70411;BME280;57832;46.038;11.398;2023-04-01T08:05:40;95867.56;;;13.24;100.00
70411;BME280;57832;46.038;11.398;2023-04-01T08:08:31;95867.81;;;14.41;100.00
70411;BME280;57832;46.038;11.398;2023-04-01T08:11:20;95859.34;;;14.44;100.00
70411;BME280;57832;46.038;11.398;2023-04-01T08:17:03;95860.28;;;14.20;100.00
70411;BME280;57832;46.038;11.398;2023-04-01T08:22:27;95859.03;;;14.45;100.00
70411;BME280;57832;46.038;11.398;2023-04-01T08:24:54;95851.13;;;14.87;100.00
70411;BME280;57832;46.038;11.398;2023-04-01T08:27:37;95849.75;;;14.20;100.00
70411;BME280;57832;46.038;11.398;2023-04-01T08:32:36;95850.75;;;15.30;100.00
70411;BME280;57832;46.038;11.398;2023-04-01T08:35:08;95839.75;;;15.00;100.00
70411;BME280;57832;46.038;11.398;2023-04-01T08:37:37;95842.13;;;14.60;100.00
70411;BME280;57832;46.038;11.398;2023-04-01T08:40:25;95847.09;;;14.20;100.00
70411;BME280;57832;46.038;11.398;2023-04-01T08:51:34;95840.47;;;14.50;100.00
70411;BME280;57832;46.038;11.398;2023-04-01T08:54:45;95838.97;;;14.02;100.00
70411;BME280;57832;46.038;11.398;2023-04-01T09:11:32;95837.00;;;15.87;100.00
70411;BME280;57832;46.038;11.398;2023-04-01T09:17:18;95838.72;;;15.69;100.00
70411;BME280;57832;46.038;11.398;2023-04-01T09:19:59;95832.19;;;15.67;100.00
70411;BME280;57832;46.038;11.398;2023-04-01T09:28:28;95834.03;;;16.20;100.00
70411;BME280;57832;46.038;11.398;2023-04-01T09:33:54;95834.66;;;16.66;100.00
70411;BME280;57832;46.038;11.398;2023-04-01T09:42:06;95820.75;;;17.45;100.00
70411;BME280;57832;46.038;11.398;2023-04-01T09:44:37;95814.03;;;18.21;94.36
70411;BME280;57832;46.038;11.398;2023-04-01T09:58:41;95799.09;;;17.99;78.92
70411;BME280;57832;46.038;11.398;2023-04-01T10:07:24;95788.78;;;18.45;67.13
70411;BME280;57832;46.038;11.398;2023-04-01T10:18:49;95756.91;;;19.17;58.70
70411;BME280;57832;46.038;11.398;2023-04-01T10:24:51;95750.88;;;20.74;45.41
70411;BME280;57832;46.038;11.398;2023-04-01T10:30:06;95752.03;;;19.98;49.43
70411;BME280;57832;46.038;11.398;2023-04-01T10:35:45;95741.38;;;23.32;42.54
70411;BME280;57832;46.038;11.398;2023-04-01T10:56:51;95714.88;;;24.16;36.66
70411;BME280;57832;46.038;11.398;2023-04-01T11:02:44;95701.63;;;23.30;36.73
70411;BME280;57832;46.038;11.398;2023-04-01T11:05:26;95697.75;;;24.51;34.76
70411;BME280;57832;46.038;11.398;2023-04-01T11:11:08;95684.53;;;25.75;33.93
70411;BME280;57832;46.038;11.398;2023-04-01T11:22:37;95655.41;;;26.29;31.42
70411;BME280;57832;46.038;11.398;2023-04-01T11:34:28;95635.91;;;26.50;29.39
70411;BME280;57832;46.038;11.398;2023-04-01T11:43:01;95622.59;;;26.75;25.56
70411;BME280;57832;46.038;11.398;2023-04-01T11:45:48;95616.41;;;28.51;24.04
70411;BME280;57832;46.038;11.398;2023-04-01T11:48:27;95605.72;;;29.60;22.21
70411;BME280;57832;46.038;11.398;2023-04-01T11:51:20;95596.13;;;30.35;21.58
70411;BME280;57832;46.038;11.398;2023-04-01T12:01:49;95572.94;;;33.08;19.79
70411;BME280;57832;46.038;11.398;2023-04-01T12:04:47;95574.34;;;33.95;19.48
70411;BME280;57832;46.038;11.398;2023-04-01T12:23:53;95551.22;;;34.46;15.94
70411;BME280;57832;46.038;11.398;2023-04-01T12:32:31;95554.25;;;36.93;14.62
70411;BME280;57832;46.038;11.398;2023-04-01T12:37:45;95547.13;;;34.25;14.85
70411;BME280;57832;46.038;11.398;2023-04-01T12:43:10;95544.75;;;35.43;15.04
70411;BME280;57832;46.038;11.398;2023-04-01T12:46:06;95547.44;;;33.85;15.31
70411;BME280;57832;46.038;11.398;2023-04-01T12:51:58;95553.50;;;32.93;16.97
70411;BME280;57832;46.038;11.398;2023-04-01T13:00:25;95562.69;;;27.58;19.32
70411;BME280;57832;46.038;11.398;2023-04-01T13:06:24;95556.50;;;25.30;22.95
70411;BME280;57832;46.038;11.398;2023-04-01T13:25:10;95559.88;;;21.22;39.37
70411;BME280;57832;46.038;11.398;2023-04-01T13:27:44;95551.44;;;21.36;41.16
70411;BME280;57832;46.038;11.398;2023-04-01T13:32:59;95581.28;;;19.84;32.11
70411;BME280;57832;46.038;11.398;2023-04-01T13:35:55;95581.84;;;20.30;32.09
70411;BME280;57832;46.038;11.398;2023-04-01T13:38:52;95590.56;;;19.16;38.62
70411;BME280;57832;46.038;11.398;2023-04-01T13:44:02;95593.44;;;19.72;41.48
70411;BME280;57832;46.038;11.398;2023-04-01T13:46:43;95588.47;;;18.76;48.27
70411;BME280;57832;46.038;11.398;2023-04-01T13:55:09;95589.22;;;24.34;31.47
70411;BME280;57832;46.038;11.398;2023-04-01T14:03:28;95591.41;;;21.52;32.75
70411;BME280;57832;46.038;11.398;2023-04-01T14:06:16;95592.56;;;20.46;35.32
70411;BME280;57832;46.038;11.398;2023-04-01T14:25:30;95600.56;;;17.02;44.02
70411;BME280;57832;46.038;11.398;2023-04-01T14:28:50;95598.25;;;17.01;48.48
70411;BME280;57832;46.038;11.398;2023-04-01T14:31:36;95592.16;;;16.83;50.94
70411;BME280;57832;46.038;11.398;2023-04-01T14:42:21;95617.44;;;15.61;55.17
70411;BME280;57832;46.038;11.398;2023-04-01T14:50:49;95619.84;;;15.00;76.25
70411;BME280;57832;46.038;11.398;2023-04-01T14:55:58;95623.75;;;19.10;54.16
70411;BME280;57832;46.038;11.398;2023-04-01T14:58:39;95617.91;;;19.16;41.68
70411;BME280;57832;46.038;11.398;2023-04-01T15:01:44;95622.44;;;20.40;40.11
70411;BME280;57832;46.038;11.398;2023-04-01T15:05:00;95621.72;;;21.44;38.50
70411;BME280;57832;46.038;11.398;2023-04-01T15:15:53;95626.13;;;20.23;39.23
70411;BME280;57832;46.038;11.398;2023-04-01T15:24:35;95638.84;;;17.23;41.97
70411;BME280;57832;46.038;11.398;2023-04-01T15:27:28;95640.78;;;17.52;42.80
70411;BME280;57832;46.038;11.398;2023-04-01T15:35:45;95636.41;;;17.47;42.85
70411;BME280;57832;46.038;11.398;2023-04-01T15:43:49;95628.91;;;17.19;44.30
70411;BME280;57832;46.038;11.398;2023-04-01T15:46:46;95636.13;;;17.49;44.23
70411;BME280;57832;46.038;11.398;2023-04-01T15:49:19;95631.84;;;17.57;44.42
70411;BME280;57832;46.038;11.398;2023-04-01T15:57:15;95634.84;;;18.15;46.32
70411;BME280;57832;46.038;11.398;2023-04-01T16:00:30;95634.38;;;18.76;43.04
70411;BME280;57832;46.038;11.398;2023-04-01T16:09:09;95644.19;;;16.79;56.96
70411;BME280;57832;46.038;11.398;2023-04-01T16:12:30;95655.44;;;16.93;60.95
70411;BME280;57832;46.038;11.398;2023-04-01T16:19:36;95663.00;;;15.58;77.11
70411;BME280;57832;46.038;11.398;2023-04-01T16:22:32;95668.50;;;15.08;76.62
70411;BME280;57832;46.038;11.398;2023-04-01T16:25:41;95663.81;;;15.36;79.06
70411;BME280;57832;46.038;11.398;2023-04-01T16:28:31;95660.69;;;15.02;76.55
70411;BME280;57832;46.038;11.398;2023-04-01T16:37:19;95686.19;;;14.48;89.91
70411;BME280;57832;46.038;11.398;2023-04-01T16:40:16;95690.41;;;14.49;94.14
70411;BME280;57832;46.038;11.398;2023-04-01T16:42:53;95688.78;;;14.11;94.71
70411;BME280;57832;46.038;11.398;2023-04-01T16:50:58;95704.50;;;13.61;100.00
70411;BME280;57832;46.038;11.398;2023-04-01T16:53:48;95706.25;;;13.37;100.00
70411;BME280;57832;46.038;11.398;2023-04-01T17:01:44;95721.88;;;12.96;100.00
70411;BME280;57832;46.038;11.398;2023-04-01T17:04:22;95728.69;;;12.97;100.00
70411;BME280;57832;46.038;11.398;2023-04-01T17:06:53;95730.00;;;12.80;100.00
70411;BME280;57832;46.038;11.398;2023-04-01T17:10:10;95738.19;;;12.79;100.00
70411;BME280;57832;46.038;11.398;2023-04-01T17:26:42;95745.75;;;12.42;100.00
70411;BME280;57832;46.038;11.398;2023-04-01T17:32:15;95757.50;;;12.07;100.00
70411;BME280;57832;46.038;11.398;2023-04-01T17:37:45;95764.38;;;12.02;100.00
70411;BME280;57832;46.038;11.398;2023-04-01T17:40:33;95766.34;;;12.16;100.00
70411;BME280;57832;46.038;11.398;2023-04-01T17:48:46;95771.47;;;11.73;100.00
70411;BME280;57832;46.038;11.398;2023-04-01T17:51:40;95779.34;;;11.73;100.00
70411;BME280;57832;46.038;11.398;2023-04-01T17:59:41;95781.03;;;11.29;100.00
70411;BME280;57832;46.038;11.398;2023-04-01T18:05:25;95794.38;;;11.37;100.00
70411;BME280;57832;46.038;11.398;2023-04-01T18:08:05;95796.31;;;11.21;100.00
70411;BME280;57832;46.038;11.398;2023-04-01T18:11:33;95800.34;;;11.09;100.00
70411;BME280;57832;46.038;11.398;2023-04-01T18:25:12;95804.69;;;10.84;100.00
70411;BME280;57832;46.038;11.398;2023-04-01T18:27:43;95808.38;;;10.83;100.00
70411;BME280;57832;46.038;11.398;2023-04-01T18:32:37;95810.81;;;10.69;100.00
70411;BME280;57832;46.038;11.398;2023-04-01T18:35:14;95811.41;;;10.56;100.00
70411;BME280;57832;46.038;11.398;2023-04-01T18:37:53;95817.91;;;10.58;100.00
70411;BME280;57832;46.038;11.398;2023-04-01T18:40:31;95833.66;;;10.58;100.00
70411;BME280;57832;46.038;11.398;2023-04-01T18:46:19;95823.75;;;10.45;100.00
70411;BME280;57832;46.038;11.398;2023-04-01T18:49:06;95832.69;;;10.28;100.00
70411;BME280;57832;46.038;11.398;2023-04-01T18:51:36;95827.69;;;10.42;100.00
70411;BME280;57832;46.038;11.398;2023-04-01T18:54:29;95829.03;;;10.19;100.00
70411;BME280;57832;46.038;11.398;2023-04-01T18:57:04;95836.41;;;10.12;100.00
70411;BME280;57832;46.038;11.398;2023-04-01T18:59:39;95845.06;;;10.07;100.00
70411;BME280;57832;46.038;11.398;2023-04-01T19:02:27;95838.00;;;10.02;100.00
70411;BME280;57832;46.038;11.398;2023-04-01T19:10:15;95857.38;;;10.01;100.00
70411;BME280;57832;46.038;11.398;2023-04-01T19:12:52;95861.59;;;9.87;100.00
70411;BME280;57832;46.038;11.398;2023-04-01T19:15:27;95857.94;;;9.88;100.00
70411;BME280;57832;46.038;11.398;2023-04-01T19:25:52;95878.34;;;9.55;100.00
70411;BME280;57832;46.038;11.398;2023-04-01T19:28:38;95864.75;;;9.43;100.00
70411;BME280;57832;46.038;11.398;2023-04-01T19:42:10;95852.84;;;10.48;100.00
70411;BME280;57832;46.038;11.398;2023-04-01T19:50:30;95841.03;;;10.51;100.00
70411;BME280;57832;46.038;11.398;2023-04-01T19:53:13;95837.06;;;10.64;100.00
70411;BME280;57832;46.038;11.398;2023-04-01T19:56:20;95842.91;;;10.45;100.00
70411;BME280;57832;46.038;11.398;2023-04-01T20:01:58;95851.28;;;10.42;100.00
70411;BME280;57832;46.038;11.398;2023-04-01T20:04:29;95853.66;;;10.44;100.00
70411;BME280;57832;46.038;11.398;2023-04-01T20:07:08;95852.84;;;10.43;100.00
70411;BME280;57832;46.038;11.398;2023-04-01T20:15:45;95839.78;;;10.28;100.00
70411;BME280;57832;46.038;11.398;2023-04-01T20:18:20;95846.28;;;10.46;100.00
70411;BME280;57832;46.038;11.398;2023-04-01T20:21:27;95849.19;;;10.29;100.00
70411;BME280;57832;46.038;11.398;2023-04-01T20:24:07;95846.84;;;10.27;100.00
70411;BME280;57832;46.038;11.398;2023-04-01T20:26:44;95844.25;;;10.17;100.00
70411;BME280;57832;46.038;11.398;2023-04-01T20:33:14;95838.22;;;10.11;100.00
70411;BME280;57832;46.038;11.398;2023-04-01T20:35:22;95836.66;;;10.15;100.00
70411;BME280;57832;46.038;11.398;2023-04-01T20:41:41;95833.25;;;10.20;100.00
70411;BME280;57832;46.038;11.398;2023-04-01T20:44:08;95839.56;;;10.03;100.00
70411;BME280;57832;46.038;11.398;2023-04-01T20:46:47;95841.16;;;9.89;100.00
70411;BME280;57832;46.038;11.398;2023-04-01T20:54:59;95828.84;;;9.79;100.00
70411;BME280;57832;46.038;11.398;2023-04-01T21:03:17;95843.47;;;10.06;100.00
70411;BME280;57832;46.038;11.398;2023-04-01T21:09:02;95839.06;;;9.91;100.00
70411;BME280;57832;46.038;11.398;2023-04-01T21:11:43;95845.09;;;9.81;100.00
70411;BME280;57832;46.038;11.398;2023-04-01T21:20:49;95858.41;;;9.02;100.00
70411;BME280;57832;46.038;11.398;2023-04-01T21:25:43;95864.03;;;8.68;100.00
70411;BME280;57832;46.038;11.398;2023-04-01T21:28:29;95870.88;;;8.80;100.00
70411;BME280;57832;46.038;11.398;2023-04-01T21:31:20;95870.00;;;8.59;100.00
70411;BME280;57832;46.038;11.398;2023-04-01T21:48:16;95887.94;;;8.02;100.00
70411;BME280;57832;46.038;11.398;2023-04-01T21:56:35;95902.44;;;7.50;100.00
70411;BME280;57832;46.038;11.398;2023-04-01T22:04:48;95914.53;;;7.34;100.00
70411;BME280;57832;46.038;11.398;2023-04-01T22:07:19;95914.50;;;7.29;100.00
70411;BME280;57832;46.038;11.398;2023-04-01T22:10:03;95917.09;;;7.29;100.00
70411;BME280;57832;46.038;11.398;2023-04-01T22:12:35;95914.25;;;7.58;100.00
70411;BME280;57832;46.038;11.398;2023-04-01T22:23:18;95907.53;;;7.40;100.00
70411;BME280;57832;46.038;11.398;2023-04-01T22:28:31;95908.56;;;7.11;100.00